sensor_id;sensor_type;location;lat;lon;timestamp;pressure;altitude;pressure_sealevel;temperature;humidity
79376;BME280;68846;53.150;18.136;2024-03-23T00:54:58;100222.86;;;8.43;80.35
79376;BME280;68846;53.150;18.136;2024-03-23T00:57:25;100224.34;;;8.49;80.17
79376;BME280;68846;53.150;18.136;2024-03-23T01:09:24;100221.59;;;8.55;80.79
79376;BME280;68846;53.150;18.136;2024-03-23T01:15:38;100218.55;;;8.51;80.71
79376;BME280;68846;53.150;18.136;2024-03-23T01:23:02;100222.80;;;8.52;81.19
79376;BME280;68846;53.150;18.136;2024-03-23T01:25:29;100222.80;;;8.53;81.04
79376;BME280;68846;53.150;18.136;2024-03-23T01:27:56;100224.92;;;8.55;81.12
79376;BME280;68846;53.150;18.136;2024-03-23T01:31:15;100223.90;;;8.58;81.16
79376;BME280;68846;53.150;18.136;2024-03-23T01:33:42;100218.52;;;8.62;80.90
79376;BME280;68846;53.150;18.136;2024-03-23T01:36:10;100217.62;;;8.60;81.17
79376;BME280;68846;53.150;18.136;2024-03-23T01:38:37;100214.75;;;8.56;81.22
79376;BME280;68846;53.150;18.136;2024-03-23T01:41:04;100214.40;;;8.55;81.19
79376;BME280;68846;53.150;18.136;2024-03-23T01:43:57;100220.38;;;8.56;81.38
79376;BME280;68846;53.150;18.136;2024-03-23T01:46:24;100211.08;;;8.57;81.56
79376;BME280;68846;53.150;18.136;2024-03-23T01:48:51;100210.71;;;8.56;81.16
79376;BME280;68846;53.150;18.136;2024-03-23T02:10:39;100207.54;;;8.69;81.45
79376;BME280;68846;53.150;18.136;2024-03-23T02:13:31;100208.02;;;8.66;81.77
79376;BME280;68846;53.150;18.136;2024-03-23T02:15:59;100201.66;;;8.62;81.48
79376;BME280;68846;53.150;18.136;2024-03-23T02:18:26;100197.45;;;8.62;81.82
79376;BME280;68846;53.150;18.136;2024-03-23T02:20:55;100194.48;;;8.63;81.75
79376;BME280;68846;53.150;18.136;2024-03-23T02:28:20;100187.30;;;8.64;81.62
79376;BME280;68846;53.150;18.136;2024-03-23T03:17:01;100122.08;;;8.53;82.11
79376;BME280;68846;53.150;18.136;2024-03-23T03:19:30;100126.09;;;8.52;81.89
79376;BME280;68846;53.150;18.136;2024-03-23T03:21:57;100123.25;;;8.48;82.07
79376;BME280;68846;53.150;18.136;2024-03-23T03:24:25;100115.70;;;8.47;82.20
79376;BME280;68846;53.150;18.136;2024-03-23T03:26:52;100111.48;;;8.47;82.12
79376;BME280;68846;53.150;18.136;2024-03-23T03:47:02;100103.17;;;8.28;82.89
79376;BME280;68846;53.150;18.136;2024-03-23T03:49:30;100105.77;;;8.24;82.72
79376;BME280;68846;53.150;18.136;2024-03-23T04:28:20;100083.21;;;8.16;83.35
79376;BME280;68846;53.150;18.136;2024-03-23T04:30:47;100086.88;;;8.15;83.21
79376;BME280;68846;53.150;18.136;2024-03-23T04:38:13;100079.91;;;8.19;83.17
79376;BME280;68846;53.150;18.136;2024-03-23T04:40:40;100075.52;;;8.18;82.89
79376;BME280;68846;53.150;18.136;2024-03-23T04:43:07;100083.06;;;8.18;83.08
79376;BME280;68846;53.150;18.136;2024-03-23T04:45:34;100076.41;;;8.17;82.83
79376;BME280;68846;53.150;18.136;2024-03-23T04:48:02;100079.38;;;8.18;82.93
79376;BME280;68846;53.150;18.136;2024-03-23T04:50:29;100076.76;;;8.19;82.61
79376;BME280;68846;53.150;18.136;2024-03-23T04:52:56;100080.08;;;8.17;82.78
79376;BME280;68846;53.150;18.136;2024-03-23T04:56:15;100085.16;;;8.16;82.93
79376;BME280;68846;53.150;18.136;2024-03-23T05:25:55;100040.29;;;7.87;82.76
79376;BME280;68846;53.150;18.136;2024-03-23T05:28:22;100034.31;;;7.86;82.80
79376;BME280;68846;53.150;18.136;2024-03-23T05:30:53;100034.98;;;7.85;83.00
79376;BME280;68846;53.150;18.136;2024-03-23T05:33:21;100039.17;;;7.83;82.95
79376;BME280;68846;53.150;18.136;2024-03-23T05:36:00;100037.06;;;7.82;82.79
79376;BME280;68846;53.150;18.136;2024-03-23T05:38:30;100039.00;;;7.84;83.06
79376;BME280;68846;53.150;18.136;2024-03-23T05:40:59;100032.75;;;7.88;82.74
79376;BME280;68846;53.150;18.136;2024-03-23T05:43:27;100031.77;;;7.93;82.00
79376;BME280;68846;53.150;18.136;2024-03-23T05:45:56;100026.86;;;7.94;81.86
79376;BME280;68846;53.150;18.136;2024-03-23T05:48:26;100030.71;;;7.94;81.91
79376;BME280;68846;53.150;18.136;2024-03-23T05:50:53;100033.70;;;7.94;81.98
79376;BME280;68846;53.150;18.136;2024-03-23T05:53:21;100031.42;;;7.97;82.00
79376;BME280;68846;53.150;18.136;2024-03-23T05:55:59;100022.54;;;7.99;81.85
79376;BME280;68846;53.150;18.136;2024-03-23T05:59:50;99990.53;;;8.08;82.65
79376;BME280;68846;53.150;18.136;2024-03-23T06:02:44;99968.32;;;8.14;82.39
79376;BME280;68846;53.150;18.136;2024-03-23T06:05:12;99973.96;;;8.19;82.83
79376;BME280;68846;53.150;18.136;2024-03-23T06:07:39;99969.64;;;8.24;81.99
79376;BME280;68846;53.150;18.136;2024-03-23T06:10:07;99951.42;;;8.27;82.09
79376;BME280;68846;53.150;18.136;2024-03-23T06:21:13;99990.95;;;8.34;81.60
79376;BME280;68846;53.150;18.136;2024-03-23T06:23:41;99988.82;;;8.30;81.57
79376;BME280;68846;53.150;18.136;2024-03-23T06:26:09;99984.56;;;8.26;81.30
79376;BME280;68846;53.150;18.136;2024-03-23T06:28:37;99990.17;;;8.24;81.65
79376;BME280;68846;53.150;18.136;2024-03-23T06:31:09;99995.92;;;8.21;81.54
79376;BME280;68846;53.150;18.136;2024-03-23T06:33:36;99994.50;;;8.20;81.62
79376;BME280;68846;53.150;18.136;2024-03-23T06:36:05;99989.76;;;8.18;81.84
79376;BME280;68846;53.150;18.136;2024-03-23T06:38:32;99985.71;;;8.16;81.87
79376;BME280;68846;53.150;18.136;2024-03-23T06:41:02;99982.20;;;8.16;82.10
79376;BME280;68846;53.150;18.136;2024-03-23T06:43:29;99982.39;;;8.19;82.36
79376;BME280;68846;53.150;18.136;2024-03-23T06:45:57;99981.74;;;8.23;81.88
79376;BME280;68846;53.150;18.136;2024-03-23T06:48:24;99981.74;;;8.23;82.00
79376;BME280;68846;53.150;18.136;2024-03-23T06:54:59;99977.88;;;8.22;81.56
79376;BME280;68846;53.150;18.136;2024-03-23T06:57:26;99980.86;;;8.22;81.84
79376;BME280;68846;53.150;18.136;2024-03-23T06:59:53;99980.32;;;8.22;81.84
79376;BME280;68846;53.150;18.136;2024-03-23T07:06:28;99976.36;;;8.29;81.68
79376;BME280;68846;53.150;18.136;2024-03-23T07:08:55;99970.92;;;8.31;82.06
79376;BME280;68846;53.150;18.136;2024-03-23T07:11:23;99970.42;;;8.34;82.05
79376;BME280;68846;53.150;18.136;2024-03-23T07:13:51;99963.64;;;8.36;82.17
79376;BME280;68846;53.150;18.136;2024-03-23T07:16:20;99966.11;;;8.39;81.71
79376;BME280;68846;53.150;18.136;2024-03-23T07:18:50;99968.05;;;8.39;81.93
79376;BME280;68846;53.150;18.136;2024-03-23T07:21:17;99968.41;;;8.41;81.66
79376;BME280;68846;53.150;18.136;2024-03-23T07:23:44;99968.05;;;8.39;81.38
79376;BME280;68846;53.150;18.136;2024-03-23T07:26:12;99967.67;;;8.37;81.43
79376;BME280;68846;53.150;18.136;2024-03-23T07:29:06;99974.69;;;8.38;81.44
79376;BME280;68846;53.150;18.136;2024-03-23T07:31:33;99977.15;;;8.37;81.01
79376;BME280;68846;53.150;18.136;2024-03-23T07:34:26;99973.39;;;8.31;81.61
79376;BME280;68846;53.150;18.136;2024-03-23T07:36:53;99967.02;;;8.24;81.23
79376;BME280;68846;53.150;18.136;2024-03-23T07:44:17;99946.31;;;8.26;81.82
79376;BME280;68846;53.150;18.136;2024-03-23T07:46:44;99955.44;;;8.25;81.74
79376;BME280;68846;53.150;18.136;2024-03-23T07:50:26;99953.63;;;8.18;81.92
79376;BME280;68846;53.150;18.136;2024-03-23T07:52:53;99955.86;;;8.13;81.67
79376;BME280;68846;53.150;18.136;2024-03-23T07:59:52;99954.14;;;7.98;81.78
79376;BME280;68846;53.150;18.136;2024-03-23T08:02:19;99949.20;;;7.96;81.28
79376;BME280;68846;53.150;18.136;2024-03-23T08:04:46;99944.98;;;7.94;81.72
79376;BME280;68846;53.150;18.136;2024-03-23T08:07:13;99937.58;;;7.90;81.77
79376;BME280;68846;53.150;18.136;2024-03-23T08:09:40;99932.65;;;7.88;82.06
79376;BME280;68846;53.150;18.136;2024-03-23T08:15:50;99931.90;;;7.83;82.18
79376;BME280;68846;53.150;18.136;2024-03-23T08:22:01;99915.08;;;7.84;82.05
79376;BME280;68846;53.150;18.136;2024-03-23T08:24:29;99915.42;;;7.84;81.94
79376;BME280;68846;53.150;18.136;2024-03-23T08:26:57;99912.10;;;7.84;81.94
79376;BME280;68846;53.150;18.136;2024-03-23T08:33:07;99902.30;;;7.85;82.01
79376;BME280;68846;53.150;18.136;2024-03-23T08:35:34;99899.30;;;7.84;82.08
79376;BME280;68846;53.150;18.136;2024-03-23T08:38:01;99883.02;;;7.86;82.33
79376;BME280;68846;53.150;18.136;2024-03-23T08:40:29;99875.90;;;7.93;82.42
79376;BME280;68846;53.150;18.136;2024-03-23T08:42:56;99878.03;;;7.97;82.32
79376;BME280;68846;53.150;18.136;2024-03-23T08:45:25;99882.78;;;7.98;82.01
79376;BME280;68846;53.150;18.136;2024-03-23T08:47:52;99881.17;;;7.95;81.21
79376;BME280;68846;53.150;18.136;2024-03-23T08:50:20;99871.32;;;7.91;81.85
79376;BME280;68846;53.150;18.136;2024-03-23T08:52:51;99869.73;;;7.91;81.99
79376;BME280;68846;53.150;18.136;2024-03-23T08:55:18;99874.86;;;7.93;82.07
79376;BME280;68846;53.150;18.136;2024-03-23T08:57:45;99882.92;;;7.95;81.76
79376;BME280;68846;53.150;18.136;2024-03-23T09:00:13;99884.16;;;7.97;81.56
79376;BME280;68846;53.150;18.136;2024-03-23T09:02:41;99883.83;;;7.97;81.42
79376;BME280;68846;53.150;18.136;2024-03-23T09:05:08;99883.27;;;7.97;81.36
79376;BME280;68846;53.150;18.136;2024-03-23T09:07:35;99883.27;;;7.93;80.85
79376;BME280;68846;53.150;18.136;2024-03-23T09:10:03;99877.96;;;7.90;80.95
79376;BME280;68846;53.150;18.136;2024-03-23T09:12:30;99871.45;;;7.86;81.06
79376;BME280;68846;53.150;18.136;2024-03-23T09:19:54;99832.11;;;7.79;81.69
79376;BME280;68846;53.150;18.136;2024-03-23T09:22:21;99834.41;;;7.79;81.76
79376;BME280;68846;53.150;18.136;2024-03-23T09:24:48;99836.55;;;7.81;81.86
79376;BME280;68846;53.150;18.136;2024-03-23T09:32:11;99836.19;;;7.83;81.91
79376;BME280;68846;53.150;18.136;2024-03-23T09:34:39;99836.54;;;7.82;81.76
79376;BME280;68846;53.150;18.136;2024-03-23T09:37:09;99829.31;;;7.79;82.10
79376;BME280;68846;53.150;18.136;2024-03-23T09:39:36;99825.84;;;7.80;81.99
79376;BME280;68846;53.150;18.136;2024-03-23T09:42:28;99818.95;;;7.75;81.71
79376;BME280;68846;53.150;18.136;2024-03-23T09:53:19;99807.25;;;7.42;81.81
79376;BME280;68846;53.150;18.136;2024-03-23T09:56:37;99802.69;;;7.39;81.73
79376;BME280;68846;53.150;18.136;2024-03-23T10:04:01;99799.04;;;7.43;81.72
79376;BME280;68846;53.150;18.136;2024-03-23T10:06:40;99794.98;;;7.41;81.68
79376;BME280;68846;53.150;18.136;2024-03-23T10:09:17;99792.88;;;7.38;81.85
79376;BME280;68846;53.150;18.136;2024-03-23T10:11:46;99798.48;;;7.40;81.71
79376;BME280;68846;53.150;18.136;2024-03-23T10:14:29;99804.79;;;7.39;81.16
79376;BME280;68846;53.150;18.136;2024-03-23T10:17:23;99804.95;;;7.38;81.09
79376;BME280;68846;53.150;18.136;2024-03-23T10:20:10;99790.73;;;7.36;81.33
79376;BME280;68846;53.150;18.136;2024-03-23T10:22:38;99794.54;;;7.31;81.01
79376;BME280;68846;53.150;18.136;2024-03-23T10:25:11;99792.73;;;7.25;81.19
79376;BME280;68846;53.150;18.136;2024-03-23T10:27:40;99791.86;;;7.26;80.99
79376;BME280;68846;53.150;18.136;2024-03-23T10:30:14;99790.66;;;7.29;80.93
79376;BME280;68846;53.150;18.136;2024-03-23T10:32:41;99788.63;;;7.35;80.92
79376;BME280;68846;53.150;18.136;2024-03-23T10:35:24;99780.80;;;7.41;80.91
79376;BME280;68846;53.150;18.136;2024-03-23T10:37:54;99776.80;;;7.44;80.45
79376;BME280;68846;53.150;18.136;2024-03-23T10:40:24;99776.29;;;7.44;80.71
79376;BME280;68846;53.150;18.136;2024-03-23T10:43:03;99770.86;;;7.45;80.59
79376;BME280;68846;53.150;18.136;2024-03-23T10:45:31;99768.39;;;7.44;80.64
79376;BME280;68846;53.150;18.136;2024-03-23T10:48:01;99765.23;;;7.43;80.27
79376;BME280;68846;53.150;18.136;2024-03-23T10:50:30;99763.11;;;7.42;80.76
79376;BME280;68846;53.150;18.136;2024-03-23T10:52:58;99759.43;;;7.41;80.30
79376;BME280;68846;53.150;18.136;2024-03-23T10:55:26;99754.86;;;7.41;80.60
79376;BME280;68846;53.150;18.136;2024-03-23T10:57:56;99751.05;;;7.45;80.43
79376;BME280;68846;53.150;18.136;2024-03-23T11:00:28;99747.60;;;7.51;80.20
79376;BME280;68846;53.150;18.136;2024-03-23T11:02:57;99733.95;;;7.53;79.22
79376;BME280;68846;53.150;18.136;2024-03-23T11:07:55;99731.63;;;7.46;79.58
79376;BME280;68846;53.150;18.136;2024-03-23T11:10:31;99723.05;;;7.45;79.77
79376;BME280;68846;53.150;18.136;2024-03-23T11:13:22;99715.16;;;7.45;79.84
79376;BME280;68846;53.150;18.136;2024-03-23T11:15:50;99713.05;;;7.46;79.45
79376;BME280;68846;53.150;18.136;2024-03-23T11:18:21;99712.18;;;7.44;79.43
79376;BME280;68846;53.150;18.136;2024-03-23T11:20:49;99699.73;;;7.46;79.53
79376;BME280;68846;53.150;18.136;2024-03-23T11:23:28;99685.05;;;7.49;79.62
79376;BME280;68846;53.150;18.136;2024-03-23T11:25:55;99689.47;;;7.55;79.40
79376;BME280;68846;53.150;18.136;2024-03-23T11:28:23;99694.23;;;7.59;78.80
79376;BME280;68846;53.150;18.136;2024-03-23T11:30:50;99689.15;;;7.60;78.73
79376;BME280;68846;53.150;18.136;2024-03-23T11:33:17;99685.98;;;7.57;78.72
79376;BME280;68846;53.150;18.136;2024-03-23T11:35:44;99685.12;;;7.60;79.31
79376;BME280;68846;53.150;18.136;2024-03-23T11:38:17;99686.02;;;7.62;79.25
79376;BME280;68846;53.150;18.136;2024-03-23T11:40:49;99686.17;;;7.60;79.11
79376;BME280;68846;53.150;18.136;2024-03-23T11:43:19;99684.75;;;7.56;78.83
79376;BME280;68846;53.150;18.136;2024-03-23T11:45:50;99681.42;;;7.56;78.54
79376;BME280;68846;53.150;18.136;2024-03-23T11:48:23;99680.34;;;7.53;78.41
79376;BME280;68846;53.150;18.136;2024-03-23T11:50:55;99673.15;;;7.50;78.71
79376;BME280;68846;53.150;18.136;2024-03-23T11:53:24;99670.70;;;7.51;78.73
79376;BME280;68846;53.150;18.136;2024-03-23T11:55:59;99667.88;;;7.49;78.65
79376;BME280;68846;53.150;18.136;2024-03-23T11:58:27;99664.70;;;7.48;78.73
79376;BME280;68846;53.150;18.136;2024-03-23T12:03:26;99668.39;;;7.46;79.22
79376;BME280;68846;53.150;18.136;2024-03-23T12:06:01;99662.43;;;7.46;78.99
79376;BME280;68846;53.150;18.136;2024-03-23T12:08:33;99651.57;;;7.46;79.40
79376;BME280;68846;53.150;18.136;2024-03-23T12:11:10;99640.70;;;7.44;79.19
79376;BME280;68846;53.150;18.136;2024-03-23T12:13:39;99638.05;;;7.43;79.22
79376;BME280;68846;53.150;18.136;2024-03-23T12:16:16;99632.61;;;7.41;78.94
79376;BME280;68846;53.150;18.136;2024-03-23T12:18:45;99623.98;;;7.34;79.32
79376;BME280;68846;53.150;18.136;2024-03-23T12:21:13;99619.23;;;7.31;80.27
79376;BME280;68846;53.150;18.136;2024-03-23T12:23:41;99619.06;;;7.32;80.25
79376;BME280;68846;53.150;18.136;2024-03-23T12:26:08;99612.95;;;7.34;80.72
79376;BME280;68846;53.150;18.136;2024-03-23T12:28:36;99612.25;;;7.37;80.55
79376;BME280;68846;53.150;18.136;2024-03-23T12:31:05;99614.89;;;7.37;80.64
79376;BME280;68846;53.150;18.136;2024-03-23T12:33:32;99624.72;;;7.38;80.57
79376;BME280;68846;53.150;18.136;2024-03-23T12:35:59;99629.77;;;7.36;80.32
79376;BME280;68846;53.150;18.136;2024-03-23T12:38:27;99629.57;;;7.32;80.46
79376;BME280;68846;53.150;18.136;2024-03-23T12:40:55;99625.32;;;7.25;80.61
79376;BME280;68846;53.150;18.136;2024-03-23T12:43:22;99610.06;;;7.22;80.59
79376;BME280;68846;53.150;18.136;2024-03-23T12:46:30;99584.66;;;7.20;80.93
79376;BME280;68846;53.150;18.136;2024-03-23T12:49:03;99579.58;;;7.20;81.12
79376;BME280;68846;53.150;18.136;2024-03-23T12:51:32;99603.89;;;7.18;81.06
79376;BME280;68846;53.150;18.136;2024-03-23T12:54:00;99606.70;;;7.17;81.29
79376;BME280;68846;53.150;18.136;2024-03-23T12:56:42;99596.20;;;7.15;81.27
79376;BME280;68846;53.150;18.136;2024-03-23T12:59:09;99587.77;;;7.15;80.92
79376;BME280;68846;53.150;18.136;2024-03-23T13:01:38;99584.95;;;7.13;80.95
79376;BME280;68846;53.150;18.136;2024-03-23T13:04:08;99563.58;;;7.09;80.52
79376;BME280;68846;53.150;18.136;2024-03-23T13:06:36;99555.83;;;7.04;80.62
79376;BME280;68846;53.150;18.136;2024-03-23T13:09:05;99547.90;;;6.96;80.58
79376;BME280;68846;53.150;18.136;2024-03-23T13:11:44;99531.06;;;6.90;81.09
79376;BME280;68846;53.150;18.136;2024-03-23T13:14:17;99512.66;;;6.88;80.94
79376;BME280;68846;53.150;18.136;2024-03-23T13:16:47;99496.69;;;6.81;81.04
79376;BME280;68846;53.150;18.136;2024-03-23T13:19:18;99506.31;;;6.80;80.86
79376;BME280;68846;53.150;18.136;2024-03-23T13:21:48;99515.73;;;6.77;80.71
79376;BME280;68846;53.150;18.136;2024-03-23T13:24:15;99518.64;;;6.68;80.14
79376;BME280;68846;53.150;18.136;2024-03-23T13:26:42;99534.52;;;6.64;80.55
79376;BME280;68846;53.150;18.136;2024-03-23T13:29:10;99542.21;;;6.64;80.60
79376;BME280;68846;53.150;18.136;2024-03-23T13:31:42;99549.57;;;6.65;80.57
79376;BME280;68846;53.150;18.136;2024-03-23T13:34:11;99553.58;;;6.63;80.77
79376;BME280;68846;53.150;18.136;2024-03-23T13:36:50;99552.70;;;6.61;80.74
79376;BME280;68846;53.150;18.136;2024-03-23T13:39:17;99556.55;;;6.61;81.02
79376;BME280;68846;53.150;18.136;2024-03-23T13:41:45;99556.86;;;6.58;80.86
79376;BME280;68846;53.150;18.136;2024-03-23T13:44:13;99554.40;;;6.57;81.13
79376;BME280;68846;53.150;18.136;2024-03-23T13:46:42;99553.14;;;6.52;80.66
79376;BME280;68846;53.150;18.136;2024-03-23T13:49:30;99553.09;;;6.46;80.65
79376;BME280;68846;53.150;18.136;2024-03-23T13:51:58;99553.56;;;6.42;80.97
79376;BME280;68846;53.150;18.136;2024-03-23T13:54:27;99552.14;;;6.40;80.62
79376;BME280;68846;53.150;18.136;2024-03-23T13:56:56;99547.95;;;6.40;81.30
79376;BME280;68846;53.150;18.136;2024-03-23T13:59:23;99549.71;;;6.41;80.90
79376;BME280;68846;53.150;18.136;2024-03-23T14:02:16;99550.73;;;6.38;80.50
79376;BME280;68846;53.150;18.136;2024-03-23T14:04:43;99562.61;;;6.36;80.92
79376;BME280;68846;53.150;18.136;2024-03-23T14:07:10;99570.95;;;6.32;80.49
79376;BME280;68846;53.150;18.136;2024-03-23T14:09:37;99577.21;;;6.29;80.78
79376;BME280;68846;53.150;18.136;2024-03-23T14:12:05;99581.04;;;6.27;81.06
79376;BME280;68846;53.150;18.136;2024-03-23T14:14:34;99584.36;;;6.28;80.71
79376;BME280;68846;53.150;18.136;2024-03-23T14:17:01;99589.44;;;6.28;80.71
79376;BME280;68846;53.150;18.136;2024-03-23T14:19:28;99587.31;;;6.25;80.28
79376;BME280;68846;53.150;18.136;2024-03-23T14:21:55;99594.09;;;6.23;80.36
79376;BME280;68846;53.150;18.136;2024-03-23T14:24:23;99611.58;;;6.22;80.42
79376;BME280;68846;53.150;18.136;2024-03-23T14:26:51;99623.75;;;6.15;79.97
79376;BME280;68846;53.150;18.136;2024-03-23T14:29:18;99621.76;;;6.10;80.21
79376;BME280;68846;53.150;18.136;2024-03-23T14:31:45;99625.56;;;6.06;80.64
79376;BME280;68846;53.150;18.136;2024-03-23T14:34:12;99620.26;;;6.01;80.34
79376;BME280;68846;53.150;18.136;2024-03-23T14:36:40;99615.83;;;5.96;80.86
79376;BME280;68846;53.150;18.136;2024-03-23T14:39:07;99628.11;;;5.89;80.67
79376;BME280;68846;53.150;18.136;2024-03-23T14:41:34;99634.33;;;5.83;80.74
79376;BME280;68846;53.150;18.136;2024-03-23T14:44:01;99635.17;;;5.82;80.84
79376;BME280;68846;53.150;18.136;2024-03-23T14:46:29;99644.04;;;5.78;80.89
79376;BME280;68846;53.150;18.136;2024-03-23T14:48:57;99650.44;;;5.74;80.88
79376;BME280;68846;53.150;18.136;2024-03-23T14:51:24;99649.89;;;5.73;81.08
79376;BME280;68846;53.150;18.136;2024-03-23T14:53:52;99655.45;;;5.69;81.20
79376;BME280;68846;53.150;18.136;2024-03-23T14:56:19;99672.37;;;5.69;80.93
79376;BME280;68846;53.150;18.136;2024-03-23T14:58:46;99698.56;;;5.68;80.57
79376;BME280;68846;53.150;18.136;2024-03-23T15:01:14;99707.11;;;5.66;80.75
79376;BME280;68846;53.150;18.136;2024-03-23T15:03:41;99709.20;;;5.65;81.02
79376;BME280;68846;53.150;18.136;2024-03-23T15:06:10;99707.10;;;5.66;81.05
79376;BME280;68846;53.150;18.136;2024-03-23T15:08:37;99709.04;;;5.67;81.37
79376;BME280;68846;53.150;18.136;2024-03-23T15:11:07;99713.20;;;5.65;81.20
79376;BME280;68846;53.150;18.136;2024-03-23T15:13:35;99711.21;;;5.60;80.82
79376;BME280;68846;53.150;18.136;2024-03-23T15:16:04;99719.19;;;5.57;80.92
79376;BME280;68846;53.150;18.136;2024-03-23T15:18:32;99722.82;;;5.54;81.23
79376;BME280;68846;53.150;18.136;2024-03-23T15:21:03;99713.54;;;5.52;81.31
79376;BME280;68846;53.150;18.136;2024-03-23T15:23:34;99711.03;;;5.49;81.30
79376;BME280;68846;53.150;18.136;2024-03-23T15:26:03;99713.48;;;5.49;81.50
79376;BME280;68846;53.150;18.136;2024-03-23T15:28:32;99718.19;;;5.49;81.50
79376;BME280;68846;53.150;18.136;2024-03-23T15:31:29;99735.91;;;5.44;81.56
79376;BME280;68846;53.150;18.136;2024-03-23T15:33:59;99743.40;;;5.42;81.36
79376;BME280;68846;53.150;18.136;2024-03-23T15:36:28;99748.92;;;5.38;80.82
79376;BME280;68846;53.150;18.136;2024-03-23T15:38:56;99761.05;;;5.33;81.19
79376;BME280;68846;53.150;18.136;2024-03-23T15:41:24;99765.89;;;5.30;81.23
79376;BME280;68846;53.150;18.136;2024-03-23T15:43:51;99773.08;;;5.32;81.25
79376;BME280;68846;53.150;18.136;2024-03-23T15:46:19;99787.28;;;5.34;81.26
79376;BME280;68846;53.150;18.136;2024-03-23T15:48:46;99781.02;;;5.36;81.72
79376;BME280;68846;53.150;18.136;2024-03-23T15:51:14;99773.18;;;5.38;81.63
79376;BME280;68846;53.150;18.136;2024-03-23T15:53:41;99768.47;;;5.38;81.45
79376;BME280;68846;53.150;18.136;2024-03-23T15:56:09;99773.69;;;5.37;81.48
79376;BME280;68846;53.150;18.136;2024-03-23T15:59:02;99774.91;;;5.37;81.56
79376;BME280;68846;53.150;18.136;2024-03-23T16:01:33;99759.89;;;5.35;81.27
79376;BME280;68846;53.150;18.136;2024-03-23T16:04:01;99769.27;;;5.33;81.05
79376;BME280;68846;53.150;18.136;2024-03-23T16:06:28;99780.77;;;5.33;80.89
79376;BME280;68846;53.150;18.136;2024-03-23T16:08:55;99781.83;;;5.32;80.95
79376;BME280;68846;53.150;18.136;2024-03-23T16:11:23;99797.16;;;5.31;80.76
79376;BME280;68846;53.150;18.136;2024-03-23T16:13:50;99809.39;;;5.32;80.86
79376;BME280;68846;53.150;18.136;2024-03-23T16:16:17;99813.94;;;5.32;81.05
79376;BME280;68846;53.150;18.136;2024-03-23T16:18:47;99821.45;;;5.33;81.04
79376;BME280;68846;53.150;18.136;2024-03-23T16:21:14;99829.77;;;5.30;80.65
79376;BME280;68846;53.150;18.136;2024-03-23T16:23:43;99829.34;;;5.25;80.81
79376;BME280;68846;53.150;18.136;2024-03-23T16:26:12;99822.88;;;5.24;80.99
79376;BME280;68846;53.150;18.136;2024-03-23T16:28:41;99829.13;;;5.22;80.95
79376;BME280;68846;53.150;18.136;2024-03-23T16:31:09;99841.95;;;5.17;80.71
79376;BME280;68846;53.150;18.136;2024-03-23T16:33:38;99854.81;;;5.15;81.07
79376;BME280;68846;53.150;18.136;2024-03-23T16:36:10;99839.09;;;5.14;81.39
79376;BME280;68846;53.150;18.136;2024-03-23T16:38:40;99836.27;;;5.13;81.25
79376;BME280;68846;53.150;18.136;2024-03-23T16:41:12;99842.88;;;5.12;81.29
79376;BME280;68846;53.150;18.136;2024-03-23T16:43:45;99834.68;;;5.11;81.26
79376;BME280;68846;53.150;18.136;2024-03-23T16:46:14;99840.98;;;5.12;81.15
79376;BME280;68846;53.150;18.136;2024-03-23T16:48:44;99836.37;;;5.09;81.18
79376;BME280;68846;53.150;18.136;2024-03-23T16:51:14;99834.06;;;5.07;81.18
79376;BME280;68846;53.150;18.136;2024-03-23T16:53:42;99852.52;;;5.05;81.31
79376;BME280;68846;53.150;18.136;2024-03-23T16:56:12;99843.45;;;5.04;81.32
79376;BME280;68846;53.150;18.136;2024-03-23T16:58:40;99821.95;;;5.03;81.41
79376;BME280;68846;53.150;18.136;2024-03-23T17:01:12;99804.13;;;5.02;81.32
79376;BME280;68846;53.150;18.136;2024-03-23T17:03:52;99802.72;;;5.01;81.14
79376;BME280;68846;53.150;18.136;2024-03-23T17:06:19;99807.87;;;4.97;81.00
79376;BME280;68846;53.150;18.136;2024-03-23T17:08:48;99801.88;;;4.93;80.99
79376;BME280;68846;53.150;18.136;2024-03-23T17:11:15;99814.70;;;4.90;81.00
79376;BME280;68846;53.150;18.136;2024-03-23T17:13:44;99831.20;;;4.86;81.06
79376;BME280;68846;53.150;18.136;2024-03-23T17:16:12;99839.33;;;4.82;81.06
79376;BME280;68846;53.150;18.136;2024-03-23T17:18:40;99834.88;;;4.78;80.91
79376;BME280;68846;53.150;18.136;2024-03-23T17:21:07;99833.58;;;4.74;81.14
79376;BME280;68846;53.150;18.136;2024-03-23T17:23:34;99839.59;;;4.70;80.71
79376;BME280;68846;53.150;18.136;2024-03-23T17:26:02;99852.02;;;4.64;80.72
79376;BME280;68846;53.150;18.136;2024-03-23T17:28:29;99855.40;;;4.58;81.07
79376;BME280;68846;53.150;18.136;2024-03-23T17:30:57;99860.75;;;4.56;81.14
79376;BME280;68846;53.150;18.136;2024-03-23T17:33:24;99856.91;;;4.55;81.32
79376;BME280;68846;53.150;18.136;2024-03-23T17:35:51;99851.61;;;4.52;81.11
79376;BME280;68846;53.150;18.136;2024-03-23T17:38:18;99843.38;;;4.51;81.45
79376;BME280;68846;53.150;18.136;2024-03-23T17:40:46;99825.42;;;4.50;81.45
79376;BME280;68846;53.150;18.136;2024-03-23T17:43:14;99840.06;;;4.51;81.45
79376;BME280;68846;53.150;18.136;2024-03-23T17:45:41;99844.04;;;4.49;81.17
79376;BME280;68846;53.150;18.136;2024-03-23T17:48:08;99858.13;;;4.48;81.06
79376;BME280;68846;53.150;18.136;2024-03-23T17:50:35;99864.71;;;4.45;80.91
79376;BME280;68846;53.150;18.136;2024-03-23T17:53:03;99864.61;;;4.42;81.04
79376;BME280;68846;53.150;18.136;2024-03-23T17:55:30;99867.34;;;4.38;81.23
79376;BME280;68846;53.150;18.136;2024-03-23T17:57:58;99869.20;;;4.37;81.16
79376;BME280;68846;53.150;18.136;2024-03-23T18:00:27;99873.73;;;4.37;81.50
79376;BME280;68846;53.150;18.136;2024-03-23T18:02:54;99878.09;;;4.37;81.40
79376;BME280;68846;53.150;18.136;2024-03-23T18:05:21;99875.95;;;4.35;81.32
79376;BME280;68846;53.150;18.136;2024-03-23T18:07:49;99885.60;;;4.37;81.90
79376;BME280;68846;53.150;18.136;2024-03-23T18:10:16;99892.89;;;4.37;81.63